createdAt,value
2023-03-22T00:00:39.555Z,101086.56
2023-03-22T00:03:42.659Z,101088.38
2023-03-22T00:06:45.762Z,101075.06
2023-03-22T00:09:48.706Z,101073.22
2023-03-22T00:12:53.130Z,101074.09
2023-03-22T00:15:57.728Z,101062.56
2023-03-22T00:19:00.593Z,101062.56
2023-03-22T00:22:06.283Z,101066.19
2023-03-22T00:25:09.571Z,101075.06
2023-03-22T00:28:14.610Z,101070.66
2023-03-22T00:31:17.711Z,101073.41
2023-03-22T00:34:20.662Z,101071.66
2023-03-22T00:37:23.512Z,101070.81
2023-03-22T00:40:26.375Z,101065.56
2023-03-22T00:43:30.619Z,101069.16
2023-03-22T00:46:33.552Z,101056.78
2023-03-22T00:49:37.590Z,101060.38
2023-03-22T00:52:40.496Z,101055.13
2023-03-22T00:55:43.824Z,101057.78
2023-03-22T00:58:48.266Z,101052.47
2023-03-22T01:01:51.214Z,101051.59
2023-03-22T01:04:54.195Z,101049.88
2023-03-22T01:07:58.606Z,101040.13
2023-03-22T01:11:02.047Z,101049.09
2023-03-22T01:14:06.229Z,101040.31
2023-03-22T01:17:09.379Z,101046.56
2023-03-22T01:20:13.758Z,101047.50
2023-03-22T01:23:16.810Z,101035.97
2023-03-22T01:26:19.691Z,101033.38
2023-03-22T01:29:24.061Z,101034.31
2023-03-22T01:32:27.039Z,101042.31
2023-03-22T01:35:30.764Z,101045.84
2023-03-22T01:38:33.896Z,101039.63
2023-03-22T01:41:38.614Z,101036.97
2023-03-22T01:45:21.342Z,101029.94
2023-03-22T01:48:29.320Z,101021.16
2023-03-22T01:51:32.339Z,101022.06
2023-03-22T01:54:53.811Z,101005.22
2023-03-22T01:58:08.703Z,101000.84
2023-03-22T02:01:27.309Z,101000.88
2023-03-22T02:04:36.761Z,101005.38
2023-03-22T02:07:43.177Z,100999.16
2023-03-22T02:10:46.821Z,101003.63
2023-03-22T02:14:15.625Z,100990.31
2023-03-22T02:17:51.178Z,100986.78
2023-03-22T02:21:32.073Z,100984.09
2023-03-22T02:25:20.629Z,100978.78
2023-03-22T02:28:34.659Z,100982.41
2023-03-22T02:31:51.750Z,100973.53
2023-03-22T02:35:28.844Z,100979.81
2023-03-22T02:39:01.513Z,100981.59
2023-03-22T02:42:17.479Z,100987.84
2023-03-22T02:45:29.155Z,100988.81
2023-03-22T02:48:37.973Z,100991.47
2023-03-22T02:51:45.269Z,100985.34
2023-03-22T02:54:53.608Z,100982.69
2023-03-22T02:57:59.242Z,100977.34
2023-03-22T03:01:06.775Z,100977.41
2023-03-22T03:04:15.196Z,100970.28
2023-03-22T03:07:22.825Z,100969.41
2023-03-22T03:10:28.723Z,100970.28
2023-03-22T03:13:31.965Z,100973.91
2023-03-22T03:16:36.673Z,100970.38
2023-03-22T03:19:46.324Z,100973.03
2023-03-22T03:22:59.230Z,100975.69
2023-03-22T03:26:08.270Z,100979.28
2023-03-22T03:29:18.699Z,100981.09
2023-03-22T03:32:27.786Z,100980.25
2023-03-22T03:35:37.709Z,100977.50
2023-03-22T03:38:45.179Z,100967.78
2023-03-22T03:41:52.513Z,100963.28
2023-03-22T03:44:57.305Z,100965.03
2023-03-22T03:48:05.112Z,100957.91
2023-03-22T03:51:08.919Z,100957.84
2023-03-22T03:54:12.083Z,100964.88
2023-03-22T03:57:17.492Z,100968.41
2023-03-22T04:00:20.932Z,100971.06
2023-03-22T04:03:50.674Z,100980.81
2023-03-22T04:07:07.568Z,100983.47
2023-03-22T04:10:13.129Z,100982.53
2023-03-22T04:13:18.319Z,100974.53
2023-03-22T04:16:21.416Z,100979.84
2023-03-22T04:19:25.056Z,100965.63
2023-03-22T04:22:28.155Z,100967.31
2023-03-22T04:25:33.913Z,100967.31
2023-03-22T04:28:45.409Z,100967.31
2023-03-22T04:31:48.847Z,100976.09
2023-03-22T04:35:01.666Z,100972.59
2023-03-22T04:38:04.914Z,100976.09
2023-03-22T04:41:09.372Z,100975.28
2023-03-22T04:44:18.802Z,100974.41
2023-03-22T04:47:26.096Z,100971.72
2023-03-22T04:50:29.249Z,100968.19
2023-03-22T04:53:38.976Z,100962.00
2023-03-22T04:56:43.058Z,100954.00
2023-03-22T04:59:47.567Z,100954.00
2023-03-22T05:02:50.783Z,100951.34
2023-03-22T05:06:03.466Z,100948.69
2023-03-22T05:09:16.576Z,100946.00
2023-03-22T05:12:19.832Z,100953.09
2023-03-22T05:15:44.471Z,100954.78
2023-03-22T05:18:54.340Z,100939.75
2023-03-22T05:22:01.848Z,100939.75
2023-03-22T05:25:23.039Z,100927.34
2023-03-22T05:28:28.487Z,100932.69
2023-03-22T05:31:53.079Z,100933.63
2023-03-22T05:34:56.874Z,100938.97
2023-03-22T05:38:11.777Z,100932.78
2023-03-22T05:41:20.384Z,100939.88
2023-03-22T05:44:23.624Z,100931.91
2023-03-22T05:47:43.819Z,100931.91
2023-03-22T05:50:50.177Z,100938.97
2023-03-22T05:53:54.533Z,100926.56
2023-03-22T05:57:01.862Z,100927.44
2023-03-22T06:00:10.439Z,100928.31
2023-03-22T06:03:18.303Z,100929.19
2023-03-22T06:06:29.282Z,100928.31
2023-03-22T06:09:52.555Z,100928.31
2023-03-22T06:12:58.956Z,100921.19
2023-03-22T06:16:07.143Z,100920.31
2023-03-22T06:19:11.539Z,100918.56
2023-03-22T06:22:14.851Z,100918.56
2023-03-22T06:25:19.079Z,100922.13
2023-03-22T06:28:23.281Z,100920.22
2023-03-22T06:31:29.600Z,100922.03
2023-03-22T06:34:40.480Z,100919.31
2023-03-22T06:37:44.974Z,100920.94
2023-03-22T06:40:47.958Z,100913.91
2023-03-22T06:43:50.902Z,100918.28
2023-03-22T06:47:11.975Z,100929.88
2023-03-22T06:50:22.452Z,100928.94
2023-03-22T06:53:46.397Z,100932.56
2023-03-22T06:56:49.612Z,100945.88
2023-03-22T06:59:52.801Z,100936.13
2023-03-22T07:02:55.791Z,100945.09
2023-03-22T07:06:12.577Z,100942.41
2023-03-22T07:09:19.434Z,100938.88
2023-03-22T07:12:24.980Z,100942.41
2023-03-22T07:15:28.630Z,100937.09
2023-03-22T07:18:38.572Z,100939.66
2023-03-22T07:21:42.894Z,100936.13
2023-03-22T07:24:56.702Z,100935.22
2023-03-22T07:28:02.061Z,100934.25
2023-03-22T07:31:09.965Z,100938.66
2023-03-22T07:34:22.198Z,100936.09
2023-03-22T07:37:38.150Z,100933.34
2023-03-22T07:40:46.711Z,100930.75
2023-03-22T07:43:55.406Z,100921.91
2023-03-22T07:46:59.834Z,100925.44
2023-03-22T07:50:11.790Z,100919.22
2023-03-22T07:53:16.272Z,100909.44
2023-03-22T07:56:21.037Z,100908.56
2023-03-22T07:59:24.973Z,100903.06
2023-03-22T08:02:28.206Z,100897.75
2023-03-22T08:05:33.573Z,100912.81
2023-03-22T08:08:40.170Z,100902.06
2023-03-22T08:11:43.152Z,100893.22
2023-03-22T08:14:50.511Z,100900.28
2023-03-22T08:17:59.097Z,100902.06
2023-03-22T08:21:10.559Z,100904.81
2023-03-22T08:24:16.355Z,100895.91
2023-03-22T08:27:37.938Z,100899.47
2023-03-22T08:30:41.403Z,100898.63
2023-03-22T08:33:45.153Z,100899.47
2023-03-22T08:36:49.043Z,100895.91
2023-03-22T08:39:53.398Z,100889.69
2023-03-22T08:42:56.352Z,100885.25
2023-03-22T08:45:59.771Z,100889.59
2023-03-22T08:49:03.620Z,100888.69
2023-03-22T08:52:14.440Z,100891.25
2023-03-22T08:55:35.408Z,100895.63
2023-03-22T08:58:48.013Z,100887.81
2023-03-22T09:02:03.864Z,100885.38
2023-03-22T09:05:08.102Z,100879.25
2023-03-22T09:08:18.443Z,100876.59
2023-03-22T09:11:25.561Z,100869.47
2023-03-22T09:14:28.722Z,100872.97
2023-03-22T09:17:31.818Z,100869.38
2023-03-22T09:20:35.053Z,100869.38
2023-03-22T09:23:40.203Z,100858.72
2023-03-22T09:26:46.030Z,100856.84
2023-03-22T09:29:53.046Z,100854.97
2023-03-22T09:32:56.179Z,100851.38
2023-03-22T09:35:59.646Z,100853.97
2023-03-22T09:39:06.676Z,100853.88
2023-03-22T09:42:26.674Z,100861.88
2023-03-22T09:45:38.556Z,100859.19
2023-03-22T09:48:44.242Z,100860.06
2023-03-22T09:51:48.732Z,100863.59
2023-03-22T09:54:53.240Z,100862.66
2023-03-22T09:58:06.256Z,100851.13
2023-03-22T10:01:20.727Z,100853.78
2023-03-22T10:04:41.653Z,100849.22
2023-03-22T10:08:00.558Z,100843.06
2023-03-22T10:11:03.885Z,100840.31
2023-03-22T10:14:23.534Z,100836.72
2023-03-22T10:17:29.217Z,100837.56
2023-03-22T10:20:40.493Z,100833.09
2023-03-22T10:23:48.536Z,100828.66
2023-03-22T10:26:52.945Z,100815.31
2023-03-22T10:30:02.399Z,100813.56
2023-03-22T10:33:13.594Z,100802.91
2023-03-22T10:36:18.377Z,100797.59
2023-03-22T10:39:30.629Z,100801.22
2023-03-22T10:42:37.777Z,100797.59
2023-03-22T10:45:43.460Z,100797.59
2023-03-22T10:48:49.061Z,100789.59
2023-03-22T10:51:56.685Z,100787.69
2023-03-22T10:55:03.686Z,100785.03
2023-03-22T10:58:14.867Z,100782.31
2023-03-22T11:01:27.371Z,100772.50
2023-03-22T11:04:33.436Z,100770.78
2023-03-22T11:07:38.759Z,100766.31
2023-03-22T11:10:41.794Z,100769.81
2023-03-22T11:13:50.490Z,100767.16
2023-03-22T11:16:58.848Z,100761.84
2023-03-22T11:20:07.824Z,100761.84
2023-03-22T11:23:13.986Z,100759.16
2023-03-22T11:26:28.210Z,100751.16
2023-03-22T11:29:41.141Z,100757.38
2023-03-22T11:32:45.500Z,100752.91
2023-03-22T11:35:54.829Z,100749.28
2023-03-22T11:38:59.948Z,100750.16
2023-03-22T11:42:06.697Z,100743.94
2023-03-22T11:45:15.913Z,100743.03
2023-03-22T11:48:24.147Z,100728.81
2023-03-22T11:51:30.950Z,100724.38
2023-03-22T11:54:38.101Z,100716.38
2023-03-22T11:57:41.082Z,100714.56
2023-03-22T12:00:44.144Z,100707.50
2023-03-22T12:03:55.967Z,100703.03
2023-03-22T12:07:01.407Z,100708.38
2023-03-22T12:10:07.914Z,100703.03
2023-03-22T12:13:18.979Z,100699.50
2023-03-22T12:16:25.809Z,100694.19
2023-03-22T12:19:45.533Z,100697.72
2023-03-22T12:22:52.748Z,100691.41
2023-03-22T12:26:01.304Z,100688.75
2023-03-22T12:29:08.283Z,100678.09
2023-03-22T12:32:18.857Z,100672.75
2023-03-22T12:35:26.426Z,100665.63
2023-03-22T12:38:39.655Z,100655.84
2023-03-22T12:41:46.939Z,100648.72
2023-03-22T12:45:02.627Z,100646.94
2023-03-22T12:48:15.006Z,100633.63
2023-03-22T12:51:19.572Z,100644.28
2023-03-22T12:54:25.183Z,100632.66
2023-03-22T12:57:28.801Z,100642.38
2023-03-22T13:00:37.794Z,100623.63
2023-03-22T13:03:47.327Z,100635.16
2023-03-22T13:07:08.693Z,100635.94
2023-03-22T13:10:48.759Z,100628.88
2023-03-22T13:13:51.750Z,100628.78
2023-03-22T13:17:00.248Z,100627.09
2023-03-22T13:20:25.644Z,100624.41
2023-03-22T13:23:30.023Z,100622.63
2023-03-22T13:26:38.276Z,100631.44
2023-03-22T13:29:41.930Z,100627.94
2023-03-22T13:32:54.604Z,100621.66
2023-03-22T13:36:00.213Z,100614.53
2023-03-22T13:39:12.329Z,100625.09
2023-03-22T13:42:21.161Z,100612.63
2023-03-22T13:45:32.406Z,100616.16
2023-03-22T13:48:52.258Z,100611.75
2023-03-22T13:51:58.347Z,100613.50
2023-03-22T13:55:02.934Z,100611.75
2023-03-22T13:58:10.090Z,100604.72
2023-03-22T14:01:17.257Z,100608.31
2023-03-22T14:04:26.765Z,100592.31
2023-03-22T14:07:33.924Z,100597.75
2023-03-22T14:10:44.380Z,100585.28
2023-03-22T14:13:52.419Z,100595.97
2023-03-22T14:17:02.823Z,100593.28
2023-03-22T14:20:10.522Z,100591.47
